createdAt,value
2017-09-19T00:00:08.981Z,1004.26
2017-09-19T00:01:08.999Z,1004.29
2017-09-19T00:02:09.015Z,1004.3
2017-09-19T00:03:09.035Z,1004.32
2017-09-19T00:04:09.055Z,1004.31
2017-09-19T00:05:09.068Z,1004.31
2017-09-19T00:06:09.087Z,1004.31
2017-09-19T00:07:09.108Z,1004.32
2017-09-19T00:08:09.122Z,1004.32
2017-09-19T00:09:09.142Z,1004.28
2017-09-19T00:10:09.158Z,1004.29
2017-09-19T00:11:09.177Z,1004.3
2017-09-19T00:12:09.196Z,1004.36
2017-09-19T00:13:09.213Z,1004.34
2017-09-19T00:14:09.230Z,1004.33
2017-09-19T00:15:09.248Z,1004.36
2017-09-19T00:16:09.266Z,1004.31
2017-09-19T00:17:09.285Z,1004.36
2017-09-19T00:18:09.305Z,1004.33
2017-09-19T00:19:09.321Z,1004.33
2017-09-19T00:20:09.337Z,1004.31
2017-09-19T00:21:09.356Z,1004.32
2017-09-19T00:22:09.371Z,1004.34
2017-09-19T00:23:09.391Z,1004.36
2017-09-19T00:24:09.410Z,1004.34
2017-09-19T00:25:09.432Z,1004.34
2017-09-19T00:26:09.444Z,1004.35
2017-09-19T00:27:09.459Z,1004.34
2017-09-19T00:28:09.479Z,1004.34
2017-09-19T00:29:09.498Z,1004.37
2017-09-19T00:30:09.515Z,1004.32
2017-09-19T00:31:09.533Z,1004.35
2017-09-19T00:32:09.550Z,1004.32
2017-09-19T00:33:09.567Z,1004.35
2017-09-19T00:34:09.584Z,1004.28
2017-09-19T00:35:09.603Z,1004.26
2017-09-19T00:36:09.620Z,1004.3
2017-09-19T00:37:09.638Z,1004.25
2017-09-19T00:38:09.655Z,1004.26
2017-09-19T00:39:09.673Z,1004.27
2017-09-19T00:40:09.691Z,1004.27
2017-09-19T00:41:09.710Z,1004.29
2017-09-19T00:42:09.727Z,1004.3
2017-09-19T00:43:09.743Z,1004.29
2017-09-19T00:44:09.762Z,1004.29
2017-09-19T00:45:09.781Z,1004.28
2017-09-19T00:46:09.799Z,1004.27
2017-09-19T00:47:09.814Z,1004.29
2017-09-19T00:48:09.832Z,1004.31
2017-09-19T00:49:09.853Z,1004.32
2017-09-19T00:50:09.868Z,1004.32
2017-09-19T00:51:09.886Z,1004.31
2017-09-19T00:52:09.903Z,1004.31
2017-09-19T00:53:09.921Z,1004.33
2017-09-19T00:54:09.939Z,1004.29
2017-09-19T00:55:09.956Z,1004.26
2017-09-19T00:56:13.009Z,1004.31
2017-09-19T00:57:09.992Z,1004.29
2017-09-19T00:58:10.011Z,1004.3
2017-09-19T00:59:10.029Z,1004.28
2017-09-19T01:00:10.046Z,1004.27
2017-09-19T01:01:10.077Z,1004.31
2017-09-19T01:02:10.080Z,1004.25
2017-09-19T01:03:10.096Z,1004.27
2017-09-19T01:04:10.114Z,1004.29
2017-09-19T01:05:10.133Z,1004.28
2017-09-19T01:06:10.156Z,1004.28
2017-09-19T01:07:10.168Z,1004.27
2017-09-19T01:08:10.186Z,1004.27
2017-09-19T01:09:10.203Z,1004.27
2017-09-19T01:10:10.220Z,1004.27
2017-09-19T01:11:10.238Z,1004.26
2017-09-19T01:12:10.254Z,1004.31
2017-09-19T01:13:10.273Z,1004.27
2017-09-19T01:14:10.290Z,1004.29
2017-09-19T01:15:10.308Z,1004.3
2017-09-19T01:16:10.324Z,1004.3
2017-09-19T01:17:10.344Z,1004.3
2017-09-19T01:18:10.359Z,1004.32
2017-09-19T01:19:10.378Z,1004.29
2017-09-19T01:20:10.394Z,1004.32
2017-09-19T01:21:10.413Z,1004.26
2017-09-19T01:22:10.428Z,1004.29
2017-09-19T01:23:10.446Z,1004.3
2017-09-19T01:24:10.464Z,1004.29
2017-09-19T01:25:10.480Z,1004.32
2017-09-19T01:26:10.499Z,1004.29
2017-09-19T01:27:10.515Z,1004.29
2017-09-19T01:28:10.531Z,1004.32
2017-09-19T01:29:10.550Z,1004.3
2017-09-19T01:30:10.566Z,1004.32
2017-09-19T01:31:10.584Z,1004.27
2017-09-19T01:32:10.603Z,1004.28
2017-09-19T01:33:10.621Z,1004.33
2017-09-19T01:34:10.636Z,1004.31
2017-09-19T01:35:10.653Z,1004.29
2017-09-19T01:36:10.669Z,1004.28
2017-09-19T01:37:10.689Z,1004.28
2017-09-19T01:38:10.703Z,1004.32
2017-09-19T01:39:10.723Z,1004.28
2017-09-19T01:40:10.739Z,1004.28
2017-09-19T01:41:10.756Z,1004.31
2017-09-19T01:42:10.774Z,1004.3
2017-09-19T01:43:10.792Z,1004.28
2017-09-19T01:44:10.809Z,1004.28
2017-09-19T01:45:10.824Z,1004.27
2017-09-19T01:46:10.841Z,1004.27
2017-09-19T01:47:10.861Z,1004.25
2017-09-19T01:48:10.879Z,1004.25
2017-09-19T01:49:10.895Z,1004.32
2017-09-19T01:50:10.912Z,1004.29
2017-09-19T01:51:10.929Z,1004.27
2017-09-19T01:52:10.949Z,1004.28
2017-09-19T01:53:10.964Z,1004.27
2017-09-19T01:54:10.980Z,1004.23
2017-09-19T01:55:10.999Z,1004.25
2017-09-19T01:56:11.017Z,1004.24
2017-09-19T01:57:11.033Z,1004.24
2017-09-19T01:58:11.050Z,1004.25
2017-09-19T01:59:11.067Z,1004.23
2017-09-19T02:00:11.084Z,1004.27
2017-09-19T02:01:11.101Z,1004.2
2017-09-19T02:02:11.118Z,1004.23
2017-09-19T02:03:11.136Z,1004.21
2017-09-19T02:04:11.149Z,1004.21
2017-09-19T02:05:11.169Z,1004.22
2017-09-19T02:06:11.185Z,1004.22
2017-09-19T02:07:11.202Z,1004.17
2017-09-19T02:08:11.222Z,1004.19
2017-09-19T02:09:11.238Z,1004.17
2017-09-19T02:10:11.255Z,1004.18
2017-09-19T02:11:11.271Z,1004.15
2017-09-19T02:12:11.290Z,1004.19
2017-09-19T02:13:11.306Z,1004.14
2017-09-19T02:14:11.321Z,1004.13
2017-09-19T02:15:11.340Z,1004.16
2017-09-19T02:16:11.360Z,1004.17
2017-09-19T02:17:11.375Z,1004.17
2017-09-19T02:18:11.421Z,1004.13
2017-09-19T02:19:11.407Z,1004.14
2017-09-19T02:20:11.426Z,1004.1
2017-09-19T02:21:11.443Z,1004.13
2017-09-19T02:22:11.460Z,1004.15
2017-09-19T02:23:11.477Z,1004.12
2017-09-19T02:24:11.492Z,1004.15
2017-09-19T02:25:11.509Z,1004.07
2017-09-19T02:26:11.525Z,1004.09
2017-09-19T02:27:11.544Z,1004.09
2017-09-19T02:28:11.561Z,1004.12
2017-09-19T02:29:11.580Z,1004.11
2017-09-19T02:30:11.594Z,1004.15
2017-09-19T02:31:11.621Z,1004.1
2017-09-19T02:32:11.630Z,1004.13
2017-09-19T02:33:11.644Z,1004.09
2017-09-19T02:34:11.662Z,1004.08
2017-09-19T02:35:11.682Z,1004.11
2017-09-19T02:36:11.697Z,1004.09
2017-09-19T02:37:11.713Z,1004.1
2017-09-19T02:38:11.733Z,1004.1
2017-09-19T02:39:11.748Z,1004.17
2017-09-19T02:40:11.762Z,1004.14
2017-09-19T02:41:11.781Z,1004.13
2017-09-19T02:42:11.799Z,1004.22
2017-09-19T02:43:11.817Z,1004.11
2017-09-19T02:44:11.831Z,1004.12
2017-09-19T02:45:11.847Z,1004.16
2017-09-19T02:46:11.864Z,1004.13
2017-09-19T02:47:11.881Z,1004.17
2017-09-19T02:48:11.897Z,1004.16
2017-09-19T02:49:11.916Z,1004.2
2017-09-19T02:50:11.935Z,1004.2
2017-09-19T02:51:11.949Z,1004.18
2017-09-19T02:52:11.965Z,1004.17
2017-09-19T02:53:11.984Z,1004.19
2017-09-19T02:54:12.003Z,1004.19
2017-09-19T02:55:12.019Z,1004.19
2017-09-19T02:56:12.034Z,1004.17
2017-09-19T02:57:12.049Z,1004.18
2017-09-19T02:58:12.067Z,1004.15
2017-09-19T02:59:12.086Z,1004.18
2017-09-19T03:00:12.099Z,1004.18
2017-09-19T03:01:12.118Z,1004.17
2017-09-19T03:02:12.134Z,1004.15
2017-09-19T03:03:12.150Z,1004.14
2017-09-19T03:04:12.166Z,1004.12
2017-09-19T03:05:12.185Z,1004.14
2017-09-19T03:06:12.203Z,1004.17
2017-09-19T03:07:12.219Z,1004.17
2017-09-19T03:08:12.235Z,1004.2
2017-09-19T03:09:12.251Z,1004.19
2017-09-19T03:10:12.268Z,1004.18
2017-09-19T03:11:12.286Z,1004.15
2017-09-19T03:12:12.301Z,1004.18
2017-09-19T03:13:12.317Z,1004.17
2017-09-19T03:14:12.336Z,1004.18
2017-09-19T03:15:12.355Z,1004.16
2017-09-19T03:16:12.370Z,1004.14
2017-09-19T03:17:12.383Z,1004.13
2017-09-19T03:18:12.403Z,1004.15
2017-09-19T03:19:12.419Z,1004.16
2017-09-19T03:20:12.434Z,1004.13
2017-09-19T03:21:12.451Z,1004.13
2017-09-19T03:22:12.469Z,1004.09
2017-09-19T03:23:12.487Z,1004.13
2017-09-19T03:24:12.500Z,1004.11
2017-09-19T03:25:12.519Z,1004.1
2017-09-19T03:26:12.535Z,1004.08
2017-09-19T03:27:12.553Z,1004.1
2017-09-19T03:28:12.568Z,1004.08
2017-09-19T03:29:12.585Z,1004.06
2017-09-19T03:30:12.604Z,1004.08
2017-09-19T03:31:12.619Z,1004.1
2017-09-19T03:32:12.634Z,1004.09
2017-09-19T03:33:12.653Z,1004.07
2017-09-19T03:34:12.669Z,1004.08
2017-09-19T03:35:12.685Z,1004.07
2017-09-19T03:36:12.700Z,1004.08
2017-09-19T03:37:12.718Z,1004.07
2017-09-19T03:38:12.734Z,1004.08
2017-09-19T03:39:12.751Z,1004.09
2017-09-19T03:40:12.769Z,1004.09
2017-09-19T03:41:12.786Z,1004.09
2017-09-19T03:42:12.802Z,1004.08
2017-09-19T03:43:12.817Z,1004.09
2017-09-19T03:44:12.835Z,1004.09
2017-09-19T03:45:12.852Z,1004.13
2017-09-19T03:46:12.866Z,1004.13
2017-09-19T03:47:12.883Z,1004.1
2017-09-19T03:48:12.900Z,1004.13
2017-09-19T03:49:12.920Z,1004.14
2017-09-19T03:50:12.934Z,1004.13
2017-09-19T03:51:12.950Z,1004.11
2017-09-19T03:52:12.971Z,1004.12
2017-09-19T03:53:12.983Z,1004.08
2017-09-19T03:54:13.002Z,1004.13
2017-09-19T03:55:13.019Z,1004.11
2017-09-19T03:56:13.034Z,1004.09
2017-09-19T03:57:13.049Z,1004.06
2017-09-19T03:58:13.065Z,1004.04
2017-09-19T03:59:13.084Z,1004.04
2017-09-19T04:00:13.098Z,1004.01
2017-09-19T04:01:13.121Z,1004.04
2017-09-19T04:02:13.134Z,1004.05
2017-09-19T04:03:13.149Z,1004.05
2017-09-19T04:04:13.169Z,1004.05
2017-09-19T04:05:13.184Z,1004.05
2017-09-19T04:06:13.199Z,1004.09
2017-09-19T04:07:13.214Z,1004.03
2017-09-19T04:08:13.230Z,1004.05
2017-09-19T04:09:13.249Z,1004.04
2017-09-19T04:10:13.266Z,1004.05
2017-09-19T04:11:13.281Z,1004.03
2017-09-19T04:12:13.297Z,1004.01
2017-09-19T04:13:13.315Z,1004.04
2017-09-19T04:14:13.334Z,1004.01
2017-09-19T04:15:13.349Z,1004.02
2017-09-19T04:16:13.364Z,1004
2017-09-19T04:17:13.380Z,1004.03
2017-09-19T04:18:13.396Z,1004.01
2017-09-19T04:19:13.411Z,1004.03
2017-09-19T04:20:13.430Z,1004.04
2017-09-19T04:21:13.446Z,1003.99
2017-09-19T04:22:13.460Z,1004.05
2017-09-19T04:23:13.483Z,1004.06
2017-09-19T04:24:13.494Z,1004.08
2017-09-19T04:25:13.513Z,1004.06
2017-09-19T04:26:13.528Z,1004.07
2017-09-19T04:27:13.545Z,1004.07
2017-09-19T04:28:13.561Z,1004.1
2017-09-19T04:29:13.578Z,1004.08
2017-09-19T04:30:13.592Z,1004.11
2017-09-19T04:31:13.611Z,1004.07
2017-09-19T04:32:13.628Z,1004.06
2017-09-19T04:33:13.643Z,1004.09
2017-09-19T04:34:13.658Z,1004.09
2017-09-19T04:35:13.675Z,1004.13
2017-09-19T04:36:13.693Z,1004.1
2017-09-19T04:37:13.822Z,1004.09
2017-09-19T04:38:13.741Z,1004.05
2017-09-19T04:39:13.740Z,1004.05
2017-09-19T04:40:13.760Z,1004.05
2017-09-19T04:41:13.773Z,1004.05
2017-09-19T04:42:13.791Z,1004.09
2017-09-19T04:43:13.808Z,1004.09
2017-09-19T04:44:13.823Z,1004.08
2017-09-19T04:45:13.844Z,1004.09
2017-09-19T04:46:13.860Z,1004.05
2017-09-19T04:47:13.873Z,1004.12
2017-09-19T04:48:13.889Z,1004.07
2017-09-19T04:49:13.902Z,1004.08
2017-09-19T04:50:13.921Z,1004.07
2017-09-19T04:51:13.938Z,1004.08
2017-09-19T04:52:13.953Z,1004.1
2017-09-19T04:53:13.968Z,1004.09
2017-09-19T04:54:13.987Z,1004.12
2017-09-19T04:55:14.003Z,1004.13
2017-09-19T04:56:14.022Z,1004.15
2017-09-19T04:57:14.037Z,1004.15
2017-09-19T04:58:14.052Z,1004.12
2017-09-19T04:59:14.066Z,1004.14
2017-09-19T05:00:14.099Z,1004.13
2017-09-19T05:01:14.107Z,1004.13
2017-09-19T05:02:14.135Z,1004.14
2017-09-19T05:03:14.135Z,1004.18
2017-09-19T05:04:14.150Z,1004.18
2017-09-19T05:05:14.166Z,1004.19
2017-09-19T05:06:14.190Z,1004.24
2017-09-19T05:07:14.198Z,1004.25
2017-09-19T05:08:14.214Z,1004.26
2017-09-19T05:09:14.231Z,1004.28
2017-09-19T05:10:14.244Z,1004.25
2017-09-19T05:11:14.263Z,1004.23
2017-09-19T05:12:14.282Z,1004.28
2017-09-19T05:13:14.297Z,1004.22
2017-09-19T05:14:14.312Z,1004.29
2017-09-19T05:15:14.328Z,1004.3
2017-09-19T05:16:14.345Z,1004.27
2017-09-19T05:17:14.360Z,1004.26
2017-09-19T05:18:14.377Z,1004.26
2017-09-19T05:19:14.392Z,1004.26
2017-09-19T05:20:14.408Z,1004.24
2017-09-19T05:21:14.425Z,1004.27
2017-09-19T05:22:14.440Z,1004.23
2017-09-19T05:23:14.460Z,1004.26
2017-09-19T05:24:14.545Z,1004.24
2017-09-19T05:25:14.492Z,1004.27
2017-09-19T05:26:14.507Z,1004.3
2017-09-19T05:27:14.646Z,1004.27
2017-09-19T05:28:14.541Z,1004.29
2017-09-19T05:29:14.556Z,1004.26
2017-09-19T05:30:14.573Z,1004.3
2017-09-19T05:31:14.589Z,1004.29
2017-09-19T05:32:14.605Z,1004.26
2017-09-19T05:33:14.622Z,1004.32
2017-09-19T05:34:14.639Z,1004.31
2017-09-19T05:35:14.651Z,1004.3
2017-09-19T05:36:14.671Z,1004.31
2017-09-19T05:37:14.686Z,1004.35
2017-09-19T05:38:14.702Z,1004.31
2017-09-19T05:39:14.719Z,1004.3
2017-09-19T05:40:14.732Z,1004.33
2017-09-19T05:41:14.749Z,1004.29
2017-09-19T05:42:14.766Z,1004.3
2017-09-19T05:43:14.784Z,1004.29
2017-09-19T05:44:14.800Z,1004.32
2017-09-19T05:45:14.816Z,1004.34
2017-09-19T05:46:14.834Z,1004.35
2017-09-19T05:47:14.846Z,1004.35
2017-09-19T05:48:14.865Z,1004.36
2017-09-19T05:49:14.882Z,1004.34
2017-09-19T05:50:14.897Z,1004.34
2017-09-19T05:51:14.914Z,1004.34
2017-09-19T05:52:14.931Z,1004.31
2017-09-19T05:53:14.946Z,1004.35
2017-09-19T05:54:14.962Z,1004.35
2017-09-19T05:55:14.979Z,1004.37
2017-09-19T05:56:14.995Z,1004.33
2017-09-19T05:57:15.012Z,1004.36
2017-09-19T05:58:15.027Z,1004.36
2017-09-19T05:59:15.045Z,1004.39
2017-09-19T06:00:15.063Z,1004.37
2017-09-19T06:01:15.076Z,1004.38
2017-09-19T06:02:15.094Z,1004.37
2017-09-19T06:03:15.110Z,1004.34
2017-09-19T06:04:15.124Z,1004.36
2017-09-19T06:05:15.140Z,1004.37
2017-09-19T06:06:15.160Z,1004.39
2017-09-19T06:07:15.176Z,1004.36
2017-09-19T06:08:15.190Z,1004.4
2017-09-19T06:09:15.207Z,1004.38
2017-09-19T06:10:15.225Z,1004.38
2017-09-19T06:11:15.242Z,1004.42
2017-09-19T06:12:15.257Z,1004.41
2017-09-19T06:13:15.272Z,1004.45
2017-09-19T06:14:15.290Z,1004.47
2017-09-19T06:15:15.307Z,1004.42
2017-09-19T06:16:15.323Z,1004.46
2017-09-19T06:17:15.337Z,1004.45
2017-09-19T06:18:15.357Z,1004.45
2017-09-19T06:19:15.373Z,1004.45
2017-09-19T06:20:15.387Z,1004.46
2017-09-19T06:21:15.404Z,1004.45
2017-09-19T06:22:15.420Z,1004.48
2017-09-19T06:23:15.439Z,1004.5
2017-09-19T06:24:15.457Z,1004.49
2017-09-19T06:25:15.474Z,1004.48
2017-09-19T06:26:15.486Z,1004.51
2017-09-19T06:27:15.503Z,1004.49
2017-09-19T06:28:15.520Z,1004.48
2017-09-19T06:29:15.535Z,1004.49
2017-09-19T06:30:15.554Z,1004.52
2017-09-19T06:31:15.568Z,1004.53
2017-09-19T06:32:15.586Z,1004.55
2017-09-19T06:33:15.608Z,1004.6
2017-09-19T06:34:15.619Z,1004.59
2017-09-19T06:35:15.636Z,1004.56
2017-09-19T06:36:15.651Z,1004.63
2017-09-19T06:37:15.673Z,1004.61
2017-09-19T06:38:15.685Z,1004.68
2017-09-19T06:39:15.700Z,1004.64
2017-09-19T06:40:15.719Z,1004.68
2017-09-19T06:41:15.735Z,1004.67
2017-09-19T06:42:15.752Z,1004.67
2017-09-19T06:43:15.767Z,1004.63
2017-09-19T06:44:15.784Z,1004.67
2017-09-19T06:45:15.802Z,1004.67
2017-09-19T06:46:15.818Z,1004.67
2017-09-19T06:47:15.837Z,1004.68
2017-09-19T06:48:15.856Z,1004.68
2017-09-19T06:49:15.867Z,1004.67
2017-09-19T06:50:15.886Z,1004.68
2017-09-19T06:51:15.903Z,1004.73
2017-09-19T06:52:15.918Z,1004.71
2017-09-19T06:53:15.935Z,1004.74
2017-09-19T06:54:15.952Z,1004.73
2017-09-19T06:55:16.084Z,1004.72
2017-09-19T06:56:15.985Z,1004.77
2017-09-19T06:57:16.004Z,1004.73
2017-09-19T06:58:16.121Z,1004.75
2017-09-19T06:59:16.041Z,1004.73
2017-09-19T07:00:16.055Z,1004.72
2017-09-19T07:01:16.287Z,1004.74
2017-09-19T07:02:16.156Z,1004.71
2017-09-19T07:03:16.152Z,1004.73
2017-09-19T07:04:16.151Z,1004.76
2017-09-19T07:05:16.141Z,1004.76
2017-09-19T07:06:16.155Z,1004.75
2017-09-19T07:07:16.290Z,1004.76
2017-09-19T07:08:16.190Z,1004.76
2017-09-19T07:09:16.314Z,1004.76
2017-09-19T07:10:16.225Z,1004.73
2017-09-19T07:11:16.425Z,1004.74
2017-09-19T07:12:16.258Z,1004.75
2017-09-19T07:13:16.321Z,1004.74
2017-09-19T07:14:16.298Z,1004.72
2017-09-19T07:15:16.311Z,1004.79
2017-09-19T07:16:16.328Z,1004.76
2017-09-19T07:17:16.345Z,1004.77
2017-09-19T07:18:16.360Z,1004.79
2017-09-19T07:19:16.379Z,1004.79
2017-09-19T07:20:16.433Z,1004.75
2017-09-19T07:21:16.413Z,1004.75
2017-09-19T07:22:16.431Z,1004.75
2017-09-19T07:23:16.449Z,1004.78
2017-09-19T07:24:16.465Z,1004.75
2017-09-19T07:25:16.485Z,1004.76
2017-09-19T07:26:16.500Z,1004.82
2017-09-19T07:27:16.518Z,1004.8
2017-09-19T07:28:16.533Z,1004.84
2017-09-19T07:29:16.554Z,1004.86
2017-09-19T07:30:16.569Z,1004.86
2017-09-19T07:31:16.586Z,1004.88
2017-09-19T07:32:16.603Z,1004.89
2017-09-19T07:33:16.619Z,1004.9
2017-09-19T07:34:16.637Z,1004.91
2017-09-19T07:35:16.655Z,1004.9
2017-09-19T07:36:16.673Z,1004.91
2017-09-19T07:37:16.690Z,1004.89
2017-09-19T07:38:16.713Z,1004.89
2017-09-19T07:39:16.727Z,1004.88
2017-09-19T07:40:16.743Z,1004.86
2017-09-19T07:41:16.759Z,1004.89
2017-09-19T07:42:16.779Z,1004.88
2017-09-19T07:43:16.797Z,1004.89
2017-09-19T07:44:16.814Z,1004.86
2017-09-19T07:45:16.941Z,1004.88
2017-09-19T07:46:16.891Z,1004.88
2017-09-19T07:47:16.866Z,1004.85
2017-09-19T07:48:16.885Z,1004.85
2017-09-19T07:49:16.901Z,1004.87
2017-09-19T07:50:16.918Z,1004.86
2017-09-19T07:51:16.936Z,1004.83
2017-09-19T07:52:16.957Z,1004.82
2017-09-19T07:53:16.973Z,1004.85
2017-09-19T07:54:16.990Z,1004.8
2017-09-19T07:55:17.010Z,1004.79
2017-09-19T07:56:17.025Z,1004.78
2017-09-19T07:57:17.044Z,1004.78
2017-09-19T07:58:17.059Z,1004.76
2017-09-19T07:59:17.079Z,1004.73
2017-09-19T08:00:17.096Z,1004.75
2017-09-19T08:01:17.112Z,1004.73
2017-09-19T08:02:17.131Z,1004.72
2017-09-19T08:03:17.149Z,1004.73
2017-09-19T08:04:17.168Z,1004.68
2017-09-19T08:05:17.182Z,1004.73
2017-09-19T08:06:17.202Z,1004.66
2017-09-19T08:07:17.221Z,1004.67
2017-09-19T08:08:17.238Z,1004.65
2017-09-19T08:09:17.257Z,1004.65
2017-09-19T08:10:17.301Z,1004.72
2017-09-19T08:11:17.294Z,1004.67
2017-09-19T08:12:17.310Z,1004.73
2017-09-19T08:13:17.325Z,1004.72
2017-09-19T08:14:17.344Z,1004.68
2017-09-19T08:15:17.362Z,1004.72
2017-09-19T08:16:17.379Z,1004.72
2017-09-19T08:17:17.397Z,1004.7
2017-09-19T08:18:17.418Z,1004.69
2017-09-19T08:19:17.435Z,1004.72
2017-09-19T08:20:17.451Z,1004.75
2017-09-19T08:21:17.473Z,1004.73
2017-09-19T08:22:17.490Z,1004.67
2017-09-19T08:23:17.506Z,1004.71
2017-09-19T08:24:17.523Z,1004.67
2017-09-19T08:25:17.543Z,1004.69
2017-09-19T08:26:17.559Z,1004.67
2017-09-19T08:27:17.580Z,1004.66
2017-09-19T08:28:17.596Z,1004.67
2017-09-19T08:29:17.616Z,1004.66
2017-09-19T08:30:17.633Z,1004.68
2017-09-19T08:31:17.649Z,1004.69
2017-09-19T08:32:17.669Z,1004.69
2017-09-19T08:33:17.690Z,1004.68
2017-09-19T08:34:17.704Z,1004.75
2017-09-19T08:35:17.722Z,1004.78
2017-09-19T08:36:17.742Z,1004.72
2017-09-19T08:37:17.761Z,1004.71
2017-09-19T08:38:17.778Z,1004.71
2017-09-19T08:39:17.798Z,1004.74
2017-09-19T08:40:17.813Z,1004.72
2017-09-19T08:41:17.834Z,1004.7
2017-09-19T08:42:17.851Z,1004.71
2017-09-19T08:43:17.869Z,1004.72
2017-09-19T08:44:17.889Z,1004.68
2017-09-19T08:45:17.911Z,1004.67
2017-09-19T08:46:17.926Z,1004.7
2017-09-19T08:47:17.943Z,1004.67
2017-09-19T08:48:17.965Z,1004.69
2017-09-19T08:49:17.981Z,1004.68
2017-09-19T08:50:17.997Z,1004.64
2017-09-19T08:51:18.018Z,1004.71
2017-09-19T08:52:18.035Z,1004.68
2017-09-19T08:53:18.052Z,1004.67
2017-09-19T08:54:18.071Z,1004.72
2017-09-19T08:55:18.092Z,1004.67
2017-09-19T08:56:18.109Z,1004.67
2017-09-19T08:57:18.126Z,1004.7
2017-09-19T08:58:18.147Z,1004.65
2017-09-19T08:59:18.166Z,1004.71
2017-09-19T09:00:18.182Z,1004.65
2017-09-19T09:01:18.210Z,1004.65
2017-09-19T09:02:18.220Z,1004.66
2017-09-19T09:03:18.240Z,1004.69
2017-09-19T09:04:18.256Z,1004.66
2017-09-19T09:05:18.280Z,1004.66
2017-09-19T09:06:18.295Z,1004.7
2017-09-19T09:07:18.313Z,1004.69
2017-09-19T09:08:18.336Z,1004.65
2017-09-19T09:09:18.351Z,1004.67
2017-09-19T09:10:18.371Z,1004.66
2017-09-19T09:11:18.389Z,1004.68
2017-09-19T09:12:18.408Z,1004.7
2017-09-19T09:13:18.429Z,1004.66
2017-09-19T09:14:18.446Z,1004.7
2017-09-19T09:15:18.465Z,1004.68
2017-09-19T09:16:18.484Z,1004.68
2017-09-19T09:17:18.503Z,1004.63
2017-09-19T09:18:18.522Z,1004.69
2017-09-19T09:19:18.541Z,1004.7
2017-09-19T09:20:18.558Z,1004.69
2017-09-19T09:21:18.579Z,1004.72
2017-09-19T09:22:18.598Z,1004.7
2017-09-19T09:23:18.615Z,1004.69
2017-09-19T09:24:18.636Z,1004.72
2017-09-19T09:25:18.655Z,1004.7
2017-09-19T09:26:18.672Z,1004.66
2017-09-19T09:27:18.694Z,1004.63
2017-09-19T09:28:18.713Z,1004.65
2017-09-19T09:29:18.730Z,1004.62
2017-09-19T09:30:18.750Z,1004.61
2017-09-19T09:31:18.770Z,1004.63
2017-09-19T09:32:18.790Z,1004.61
2017-09-19T09:33:18.807Z,1004.59
2017-09-19T09:34:18.828Z,1004.59
2017-09-19T09:35:18.848Z,1004.62
2017-09-19T09:36:18.866Z,1004.64
2017-09-19T09:37:18.885Z,1004.62
2017-09-19T09:38:18.905Z,1004.63
2017-09-19T09:39:18.923Z,1004.63
2017-09-19T09:40:18.942Z,1004.58
2017-09-19T09:41:18.964Z,1004.62
2017-09-19T09:42:18.983Z,1004.64
2017-09-19T09:43:19.001Z,1004.62
2017-09-19T09:44:19.022Z,1004.63
2017-09-19T09:45:19.042Z,1004.59
2017-09-19T09:46:19.063Z,1004.62
2017-09-19T09:47:19.080Z,1004.66
2017-09-19T09:48:19.102Z,1004.62
2017-09-19T09:49:19.122Z,1004.65
2017-09-19T09:50:19.139Z,1004.64
2017-09-19T09:51:19.157Z,1004.59
2017-09-19T09:52:19.179Z,1004.59
2017-09-19T09:53:19.198Z,1004.6
2017-09-19T09:54:19.222Z,1004.64
2017-09-19T09:55:19.238Z,1004.6
2017-09-19T09:56:19.257Z,1004.64
2017-09-19T09:57:19.277Z,1004.61
2017-09-19T09:58:19.299Z,1004.6
2017-09-19T09:59:19.317Z,1004.65
2017-09-19T10:00:19.338Z,1004.62
2017-09-19T10:01:19.360Z,1004.6
2017-09-19T10:02:19.377Z,1004.6
2017-09-19T10:03:19.396Z,1004.55
2017-09-19T10:04:19.419Z,1004.59
2017-09-19T10:05:19.438Z,1004.59
2017-09-19T10:06:19.458Z,1004.55
2017-09-19T10:07:19.478Z,1004.57
2017-09-19T10:08:19.497Z,1004.59
2017-09-19T10:09:19.518Z,1004.6
2017-09-19T10:10:19.539Z,1004.58
2017-09-19T10:11:19.562Z,1004.61
2017-09-19T10:12:19.580Z,1004.62
2017-09-19T10:13:19.606Z,1004.62
2017-09-19T10:14:19.622Z,1004.63
2017-09-19T10:15:19.645Z,1004.61
2017-09-19T10:16:19.669Z,1004.59
2017-09-19T10:17:19.688Z,1004.59
2017-09-19T10:18:19.704Z,1004.56
2017-09-19T10:19:19.725Z,1004.53
2017-09-19T10:20:19.743Z,1004.58
2017-09-19T10:21:19.765Z,1004.6
2017-09-19T10:22:19.786Z,1004.63
2017-09-19T10:23:19.808Z,1004.62
2017-09-19T10:24:19.827Z,1004.66
2017-09-19T10:25:19.849Z,1004.66
2017-09-19T10:26:19.870Z,1004.68
2017-09-19T10:27:19.891Z,1004.61
2017-09-19T10:28:19.909Z,1004.62
2017-09-19T10:29:19.936Z,1004.53
2017-09-19T10:30:19.952Z,1004.59
2017-09-19T10:31:19.971Z,1004.61
2017-09-19T10:32:19.994Z,1004.61
2017-09-19T10:33:20.017Z,1004.61
2017-09-19T10:34:20.035Z,1004.61
2017-09-19T10:35:20.057Z,1004.62
2017-09-19T10:36:20.076Z,1004.62
2017-09-19T10:37:20.099Z,1004.62
2017-09-19T10:38:20.120Z,1004.63
2017-09-19T10:39:20.140Z,1004.67
2017-09-19T10:40:20.166Z,1004.63
2017-09-19T10:41:20.183Z,1004.61
2017-09-19T10:42:20.208Z,1004.64
2017-09-19T10:43:20.227Z,1004.63
2017-09-19T10:44:20.249Z,1004.63
2017-09-19T10:45:20.271Z,1004.63
2017-09-19T10:46:20.291Z,1004.58
2017-09-19T10:47:20.313Z,1004.6
2017-09-19T10:48:20.335Z,1004.59
2017-09-19T10:49:20.356Z,1004.63
2017-09-19T10:50:20.377Z,1004.61
2017-09-19T10:51:20.400Z,1004.6
2017-09-19T10:52:20.422Z,1004.6
2017-09-19T10:53:20.441Z,1004.58
2017-09-19T10:54:20.466Z,1004.57
2017-09-19T10:55:20.484Z,1004.58
2017-09-19T10:56:20.506Z,1004.56
2017-09-19T10:57:20.532Z,1004.57
2017-09-19T10:58:20.553Z,1004.58
2017-09-19T10:59:20.576Z,1004.59
2017-09-19T11:00:20.593Z,1004.62
2017-09-19T11:01:20.614Z,1004.65
2017-09-19T11:02:20.763Z,1004.67
2017-09-19T11:03:20.664Z,1004.66
2017-09-19T11:04:20.683Z,1004.69
2017-09-19T11:05:20.707Z,1004.71
2017-09-19T11:06:20.729Z,1004.76
2017-09-19T11:07:20.749Z,1004.8
2017-09-19T11:08:20.770Z,1004.76
2017-09-19T11:09:20.793Z,1004.81
2017-09-19T11:10:20.814Z,1004.8
2017-09-19T11:11:20.931Z,1004.79
2017-09-19T11:12:20.859Z,1004.78
2017-09-19T11:13:20.885Z,1004.76
2017-09-19T11:14:20.901Z,1004.74
2017-09-19T11:15:20.945Z,1004.74
2017-09-19T11:16:20.950Z,1004.69
2017-09-19T11:17:20.976Z,1004.7
2017-09-19T11:18:20.999Z,1004.68
2017-09-19T11:19:21.018Z,1004.65
2017-09-19T11:20:21.035Z,1004.63
2017-09-19T11:21:21.061Z,1004.67
2017-09-19T11:22:21.082Z,1004.63
2017-09-19T11:23:21.103Z,1004.66
2017-09-19T11:24:21.125Z,1004.65
2017-09-19T11:25:21.156Z,1004.62
2017-09-19T11:26:21.185Z,1004.63
2017-09-19T11:27:21.193Z,1004.58
2017-09-19T11:28:21.215Z,1004.62
2017-09-19T11:29:21.248Z,1004.62
2017-09-19T11:30:21.261Z,1004.59
2017-09-19T11:31:21.283Z,1004.64
2017-09-19T11:32:21.305Z,1004.66
2017-09-19T11:33:21.331Z,1004.63
2017-09-19T11:34:21.352Z,1004.6
2017-09-19T11:35:21.375Z,1004.6
2017-09-19T11:36:21.405Z,1004.65
2017-09-19T11:37:21.420Z,1004.62
2017-09-19T11:38:21.444Z,1004.66
2017-09-19T11:39:21.476Z,1004.63
2017-09-19T11:40:21.517Z,1004.6
2017-09-19T11:41:21.510Z,1004.68
2017-09-19T11:42:21.609Z,1004.65
2017-09-19T11:43:21.559Z,1004.64
2017-09-19T11:44:21.581Z,1004.61
2017-09-19T11:45:21.603Z,1004.62
2017-09-19T11:46:21.664Z,1004.6
2017-09-19T11:47:21.651Z,1004.6
2017-09-19T11:48:21.673Z,1004.62
2017-09-19T11:49:21.778Z,1004.61
2017-09-19T11:50:21.720Z,1004.61
2017-09-19T11:51:21.783Z,1004.62
2017-09-19T11:52:21.764Z,1004.62
2017-09-19T11:53:21.788Z,1004.59
2017-09-19T11:54:21.815Z,1004.54
2017-09-19T11:55:21.832Z,1004.57
2017-09-19T11:56:21.858Z,1004.52
2017-09-19T11:57:21.882Z,1004.51
2017-09-19T11:58:21.907Z,1004.51
2017-09-19T11:59:21.928Z,1004.48
2017-09-19T12:00:21.952Z,1004.52
2017-09-19T12:01:21.976Z,1004.5
2017-09-19T12:02:22.001Z,1004.56
2017-09-19T12:03:22.021Z,1004.55
2017-09-19T12:04:22.042Z,1004.51
2017-09-19T12:05:22.068Z,1004.45
2017-09-19T12:06:22.088Z,1004.51
2017-09-19T12:07:22.116Z,1004.49